createdAt,value
2023-06-16T00:00:42.449Z,2.13
2023-06-16T00:03:09.487Z,1.67
2023-06-16T00:05:36.736Z,2.42
2023-06-16T00:08:04.635Z,2.17
2023-06-16T00:10:32.334Z,2.00
2023-06-16T00:12:59.235Z,2.17
2023-06-16T00:15:26.408Z,1.92
2023-06-16T00:17:53.714Z,1.92
2023-06-16T00:20:22.347Z,2.05
2023-06-16T00:22:49.587Z,2.20
2023-06-16T00:25:20.742Z,1.92
2023-06-16T00:27:48.030Z,2.40
2023-06-16T00:30:15.291Z,2.00
2023-06-16T00:32:42.161Z,2.08
2023-06-16T00:35:09.475Z,1.80
2023-06-16T00:37:36.283Z,2.10
2023-06-16T00:40:05.361Z,2.40
2023-06-16T00:42:32.845Z,1.90
2023-06-16T00:44:59.713Z,2.17
2023-06-16T00:47:29.197Z,2.03
2023-06-16T00:49:55.999Z,2.58
2023-06-16T00:52:28.440Z,2.00
2023-06-16T00:54:55.875Z,2.17
2023-06-16T00:57:24.476Z,2.15
2023-06-16T00:59:51.298Z,2.17
2023-06-16T01:02:19.840Z,2.63
2023-06-16T01:04:49.446Z,2.50
2023-06-16T01:07:30.555Z,2.33
2023-06-16T01:10:25.950Z,2.20
2023-06-16T01:13:41.012Z,2.05
2023-06-16T01:16:12.677Z,1.80
2023-06-16T01:18:45.401Z,2.22
2023-06-16T01:21:21.057Z,2.17
2023-06-16T01:24:05.333Z,2.40
2023-06-16T01:26:37.103Z,2.45
2023-06-16T01:29:09.341Z,2.28
2023-06-16T01:31:38.922Z,2.53
2023-06-16T01:34:09.581Z,2.42
2023-06-16T01:36:41.547Z,2.22
2023-06-16T01:39:12.104Z,2.17
2023-06-16T01:41:44.243Z,2.47
2023-06-16T01:44:11.705Z,2.92
2023-06-16T01:46:39.872Z,2.55
2023-06-16T01:49:08.960Z,2.30
2023-06-16T01:51:43.839Z,2.33
2023-06-16T01:54:10.752Z,2.63
2023-06-16T01:56:37.716Z,2.83
2023-06-16T01:59:05.282Z,2.45
2023-06-16T02:01:45.224Z,2.40
2023-06-16T02:04:19.700Z,2.28
2023-06-16T02:07:01.038Z,2.33
2023-06-16T02:09:30.922Z,2.53
2023-06-16T02:11:59.546Z,3.00
2023-06-16T02:14:28.355Z,2.10
2023-06-16T02:16:57.547Z,2.65
2023-06-16T02:19:24.895Z,2.42
2023-06-16T02:21:51.721Z,2.28
2023-06-16T02:24:18.603Z,2.05
2023-06-16T02:26:45.513Z,2.60
2023-06-16T02:29:12.385Z,2.30
2023-06-16T02:31:39.204Z,2.42
2023-06-16T02:34:06.179Z,2.30
2023-06-16T02:36:34.293Z,2.92
2023-06-16T02:39:01.176Z,2.58
2023-06-16T02:41:27.957Z,2.28
2023-06-16T02:43:54.719Z,2.58
2023-06-16T02:46:21.554Z,2.60
2023-06-16T02:48:48.381Z,2.22
2023-06-16T02:51:15.230Z,2.50
2023-06-16T02:53:42.563Z,2.50
2023-06-16T02:56:09.417Z,2.28
2023-06-16T02:58:36.571Z,2.70
2023-06-16T03:01:03.594Z,2.25
2023-06-16T03:03:32.287Z,2.55
2023-06-16T03:05:59.971Z,2.80
2023-06-16T03:08:27.228Z,2.70
2023-06-16T03:10:54.343Z,3.25
2023-06-16T03:13:21.236Z,3.47
2023-06-16T03:15:48.167Z,2.75
2023-06-16T03:18:15.044Z,2.60
2023-06-16T03:20:42.912Z,2.70
2023-06-16T03:23:09.730Z,2.65
2023-06-16T03:25:38.084Z,2.85
2023-06-16T03:28:08.071Z,3.03
2023-06-16T03:30:34.812Z,2.80
2023-06-16T03:33:01.819Z,2.58
2023-06-16T03:35:28.632Z,2.95
2023-06-16T03:37:55.492Z,2.90
2023-06-16T03:40:22.305Z,3.08
2023-06-16T03:42:49.127Z,3.10
2023-06-16T03:45:16.059Z,3.03
2023-06-16T03:47:45.526Z,3.33
2023-06-16T03:50:12.431Z,3.00
2023-06-16T03:52:39.615Z,2.72
2023-06-16T03:55:06.787Z,3.38
2023-06-16T03:57:33.584Z,3.08
2023-06-16T04:00:00.418Z,3.53
2023-06-16T04:02:34.087Z,3.20
2023-06-16T04:05:02.633Z,3.10
2023-06-16T04:07:31.787Z,3.25
2023-06-16T04:09:58.713Z,3.40
2023-06-16T04:12:25.767Z,2.90
2023-06-16T04:14:52.649Z,2.78
2023-06-16T04:17:19.459Z,3.38
2023-06-16T04:19:47.793Z,2.95
2023-06-16T04:22:14.781Z,3.17
2023-06-16T04:24:41.622Z,3.17
2023-06-16T04:27:09.599Z,3.13
2023-06-16T04:29:43.505Z,3.10
2023-06-16T04:32:12.376Z,3.17
2023-06-16T04:34:43.363Z,3.08
2023-06-16T04:37:14.803Z,3.38
2023-06-16T04:39:41.911Z,3.70
2023-06-16T04:42:11.031Z,2.90
2023-06-16T04:44:38.058Z,3.20
2023-06-16T04:47:05.408Z,3.75
2023-06-16T04:49:32.577Z,3.03
2023-06-16T04:51:59.534Z,3.80
2023-06-16T04:54:26.880Z,3.63
2023-06-16T04:56:53.986Z,3.47
2023-06-16T04:59:23.785Z,3.45
2023-06-16T05:01:51.211Z,3.35
2023-06-16T05:04:18.704Z,3.78
2023-06-16T05:06:45.519Z,3.17
2023-06-16T05:09:12.310Z,3.45
2023-06-16T05:11:39.170Z,3.63
2023-06-16T05:14:05.949Z,3.80
2023-06-16T05:16:32.754Z,3.40
2023-06-16T05:18:59.689Z,3.60
2023-06-16T05:21:26.849Z,3.92
2023-06-16T05:23:54.557Z,3.78
2023-06-16T05:26:22.445Z,3.53
2023-06-16T05:28:49.597Z,3.85
2023-06-16T05:31:17.844Z,3.35
2023-06-16T05:33:44.713Z,3.42
2023-06-16T05:36:11.710Z,3.63
2023-06-16T05:38:38.462Z,3.58
2023-06-16T05:41:05.382Z,3.72
2023-06-16T05:43:32.165Z,3.42
2023-06-16T05:45:58.991Z,3.55
2023-06-16T05:48:25.927Z,3.65
2023-06-16T05:50:52.758Z,4.05
2023-06-16T05:53:19.772Z,4.32
2023-06-16T05:55:47.706Z,3.53
2023-06-16T05:58:17.628Z,3.35
2023-06-16T06:00:44.498Z,3.67
2023-06-16T06:03:11.517Z,3.45
2023-06-16T06:05:39.947Z,3.40
2023-06-16T06:08:06.833Z,2.95
2023-06-16T06:10:33.638Z,3.10
2023-06-16T06:13:07.281Z,3.45
2023-06-16T06:15:34.094Z,3.95
2023-06-16T06:18:01.021Z,3.17
2023-06-16T06:20:27.900Z,3.17
2023-06-16T06:22:54.712Z,3.25
2023-06-16T06:25:21.532Z,3.08
2023-06-16T06:27:48.283Z,5.15
2023-06-16T06:30:15.341Z,3.60
2023-06-16T06:32:42.432Z,3.13
2023-06-16T06:35:09.793Z,3.20
2023-06-16T06:37:36.636Z,3.38
2023-06-16T06:40:03.934Z,2.83
2023-06-16T06:42:30.787Z,2.50
2023-06-16T06:45:03.386Z,2.22
2023-06-16T06:47:30.300Z,2.28
2023-06-16T06:49:58.364Z,2.72
2023-06-16T06:52:25.130Z,2.60
2023-06-16T06:54:54.003Z,2.85
2023-06-16T06:57:20.768Z,2.30
2023-06-16T06:59:47.574Z,2.95
2023-06-16T07:02:15.114Z,2.25
2023-06-16T07:04:43.780Z,2.70
2023-06-16T07:07:11.072Z,2.20
2023-06-16T07:09:39.321Z,2.42
2023-06-16T07:12:08.301Z,3.10
2023-06-16T07:14:35.413Z,2.55
2023-06-16T07:17:03.980Z,2.85
2023-06-16T07:19:30.874Z,3.97
2023-06-16T07:21:59.121Z,3.08
2023-06-16T07:24:26.173Z,2.35
2023-06-16T07:26:53.110Z,2.30
2023-06-16T07:29:21.594Z,2.50
2023-06-16T07:31:52.045Z,2.60
2023-06-16T07:34:19.277Z,2.42
2023-06-16T07:36:46.168Z,2.38
2023-06-16T07:39:14.028Z,2.15
2023-06-16T07:41:40.898Z,2.50
2023-06-16T07:44:07.713Z,1.90
2023-06-16T07:46:34.736Z,1.73
2023-06-16T07:49:01.992Z,1.70
2023-06-16T07:51:28.791Z,1.80
2023-06-16T07:53:55.624Z,2.05
2023-06-16T07:56:22.662Z,1.98
2023-06-16T07:58:49.522Z,2.03
2023-06-16T08:01:16.383Z,1.83
2023-06-16T08:03:47.628Z,2.03
2023-06-16T08:06:16.583Z,1.80
2023-06-16T08:08:43.609Z,1.75
2023-06-16T08:11:10.599Z,1.85
2023-06-16T08:13:37.453Z,2.17
2023-06-16T08:16:06.161Z,1.88
2023-06-16T08:18:33.167Z,2.13
2023-06-16T08:21:01.184Z,2.00
2023-06-16T08:23:32.175Z,1.83
2023-06-16T08:26:00.917Z,1.63
2023-06-16T08:28:27.877Z,2.10
2023-06-16T08:30:54.796Z,2.25
2023-06-16T08:33:21.574Z,1.95
2023-06-16T08:35:48.561Z,2.45
2023-06-16T08:38:16.323Z,1.70
2023-06-16T08:40:44.506Z,1.77
2023-06-16T08:43:14.073Z,1.95
2023-06-16T08:45:41.594Z,1.98
2023-06-16T08:48:11.863Z,1.95
2023-06-16T08:50:41.831Z,2.00
2023-06-16T08:53:12.489Z,1.88
2023-06-16T08:55:42.043Z,1.98
2023-06-16T08:58:12.688Z,1.92
2023-06-16T09:00:42.390Z,2.20
2023-06-16T09:03:09.648Z,1.83
2023-06-16T09:05:37.546Z,2.05
2023-06-16T09:08:06.822Z,1.95
2023-06-16T09:10:36.655Z,2.20
2023-06-16T09:13:03.842Z,2.10
2023-06-16T09:15:30.669Z,2.25
2023-06-16T09:17:57.653Z,2.50
2023-06-16T09:20:25.304Z,2.28
2023-06-16T09:23:00.968Z,2.22
2023-06-16T09:25:34.026Z,2.03
2023-06-16T09:28:11.427Z,2.15
2023-06-16T09:30:42.683Z,1.77
2023-06-16T09:33:12.768Z,2.67
2023-06-16T09:35:44.041Z,1.83
2023-06-16T09:38:11.977Z,1.83
2023-06-16T09:40:39.853Z,2.35
2023-06-16T09:43:10.544Z,2.13
2023-06-16T09:45:37.686Z,2.15
2023-06-16T09:48:13.014Z,2.20
2023-06-16T09:50:42.086Z,2.17
2023-06-16T09:53:10.620Z,2.13
2023-06-16T09:55:46.970Z,2.17
2023-06-16T09:58:13.801Z,2.13
2023-06-16T10:00:40.649Z,2.13
2023-06-16T10:03:16.690Z,2.05
2023-06-16T10:05:53.591Z,2.10
2023-06-16T10:08:20.996Z,2.20
2023-06-16T10:10:53.708Z,2.20
2023-06-16T10:13:22.618Z,2.20
2023-06-16T10:15:54.021Z,2.20
2023-06-16T10:18:24.338Z,1.73
2023-06-16T10:20:53.605Z,1.90
2023-06-16T10:23:20.513Z,1.90
2023-06-16T10:25:47.895Z,2.03
2023-06-16T10:28:15.845Z,2.03
2023-06-16T10:30:45.003Z,2.00
2023-06-16T10:33:25.419Z,2.13
2023-06-16T10:36:16.111Z,1.60
2023-06-16T10:39:17.457Z,1.95
2023-06-16T10:42:00.338Z,2.20
2023-06-16T10:44:34.233Z,2.20
2023-06-16T10:47:10.496Z,1.90
2023-06-16T10:50:01.111Z,1.95
2023-06-16T10:52:34.020Z,2.15
2023-06-16T10:55:35.448Z,2.30
2023-06-16T10:58:17.530Z,2.22
2023-06-16T11:01:07.000Z,2.22
2023-06-16T11:03:46.358Z,2.13
2023-06-16T11:06:14.048Z,2.13
2023-06-16T11:08:51.321Z,2.35
2023-06-16T11:11:23.349Z,1.83
2023-06-16T11:13:50.683Z,1.85
2023-06-16T11:16:19.684Z,1.80
2023-06-16T11:18:46.734Z,2.08
2023-06-16T11:21:14.713Z,1.85
2023-06-16T11:23:45.798Z,2.00
2023-06-16T11:26:18.732Z,2.03
2023-06-16T11:28:49.554Z,1.80
2023-06-16T11:31:22.270Z,2.13
2023-06-16T11:33:55.821Z,2.20
2023-06-16T11:36:54.829Z,1.80
2023-06-16T11:39:23.524Z,1.90
2023-06-16T11:42:01.700Z,1.42
2023-06-16T11:44:29.225Z,2.00
2023-06-16T11:47:00.212Z,2.38
2023-06-16T11:49:31.106Z,2.03
2023-06-16T11:52:08.146Z,1.65
2023-06-16T11:54:36.853Z,1.83
2023-06-16T11:57:04.004Z,1.90
2023-06-16T11:59:33.643Z,2.13
2023-06-16T12:02:04.396Z,2.20
2023-06-16T12:04:35.522Z,2.10
2023-06-16T12:07:05.622Z,2.03
2023-06-16T12:09:39.844Z,2.35
2023-06-16T12:12:09.774Z,2.10
2023-06-16T12:14:37.757Z,2.28
2023-06-16T12:17:06.541Z,1.85
2023-06-16T12:19:41.393Z,2.22
2023-06-16T12:22:10.509Z,1.80
2023-06-16T12:24:42.353Z,2.30
2023-06-16T12:27:26.622Z,1.90
2023-06-16T12:29:59.307Z,2.30
2023-06-16T12:32:34.916Z,1.95
2023-06-16T12:35:02.985Z,1.95
2023-06-16T12:37:31.054Z,1.73
2023-06-16T12:40:01.150Z,1.80
2023-06-16T12:42:30.816Z,2.40
2023-06-16T12:45:00.929Z,2.03
2023-06-16T12:47:30.378Z,1.92
2023-06-16T12:50:00.920Z,2.17
2023-06-16T12:52:32.213Z,2.33
2023-06-16T12:55:01.015Z,2.03
2023-06-16T12:57:28.807Z,2.20
2023-06-16T12:59:55.908Z,1.90
2023-06-16T13:02:23.404Z,2.30
2023-06-16T13:04:50.559Z,1.90
2023-06-16T13:07:17.541Z,1.80
2023-06-16T13:09:44.498Z,1.83
2023-06-16T13:12:12.197Z,2.20
2023-06-16T13:14:41.764Z,2.05
2023-06-16T13:17:08.618Z,1.70
2023-06-16T13:19:35.974Z,2.50
2023-06-16T13:22:05.008Z,3.85
2023-06-16T13:24:31.985Z,2.38
2023-06-16T13:26:59.922Z,1.92
2023-06-16T13:29:28.089Z,1.80
2023-06-16T13:31:55.533Z,2.00
2023-06-16T13:34:22.544Z,1.95
2023-06-16T13:36:50.482Z,1.80
2023-06-16T13:39:17.358Z,2.10
2023-06-16T13:41:44.222Z,2.10
2023-06-16T13:44:13.290Z,1.75
2023-06-16T13:46:40.952Z,1.88
2023-06-16T13:49:11.216Z,1.90
2023-06-16T13:51:42.231Z,2.08
2023-06-16T13:54:11.807Z,1.92
2023-06-16T13:56:38.755Z,2.47
2023-06-16T13:59:05.556Z,2.47
2023-06-16T14:01:33.131Z,1.75
2023-06-16T14:04:00.108Z,2.17
2023-06-16T14:06:26.979Z,2.63
2023-06-16T14:08:56.997Z,2.25
2023-06-16T14:11:25.217Z,2.95
2023-06-16T14:13:52.806Z,2.13
2023-06-16T14:16:21.876Z,2.35
2023-06-16T14:18:48.727Z,1.98
2023-06-16T14:21:15.508Z,2.47
2023-06-16T14:23:42.279Z,2.13
2023-06-16T14:26:09.065Z,2.20
2023-06-16T14:28:35.853Z,2.53
2023-06-16T14:31:02.770Z,2.83
2023-06-16T14:33:29.574Z,2.25
2023-06-16T14:35:56.315Z,2.08
2023-06-16T14:38:23.064Z,2.30
2023-06-16T14:40:49.955Z,2.15
2023-06-16T14:43:16.786Z,1.95
2023-06-16T14:45:43.594Z,2.00
2023-06-16T14:48:10.955Z,2.38
2023-06-16T14:50:37.822Z,1.95
2023-06-16T14:53:04.708Z,2.50
2023-06-16T14:55:31.452Z,2.60
2023-06-16T14:57:58.306Z,2.20
2023-06-16T15:00:25.189Z,2.38
2023-06-16T15:02:52.108Z,1.65
2023-06-16T15:05:19.763Z,1.98
2023-06-16T15:07:46.539Z,1.80
2023-06-16T15:10:13.522Z,2.03
2023-06-16T15:12:40.338Z,2.05
2023-06-16T15:15:08.189Z,1.90
2023-06-16T15:17:35.973Z,1.63
2023-06-16T15:20:06.480Z,1.75
2023-06-16T15:22:33.302Z,1.63
2023-06-16T15:25:00.287Z,2.00
2023-06-16T15:27:27.199Z,1.95
2023-06-16T15:29:54.040Z,1.70
2023-06-16T15:32:20.847Z,1.75
2023-06-16T15:34:47.690Z,1.60
2023-06-16T15:37:14.554Z,2.17
2023-06-16T15:39:41.334Z,1.67
2023-06-16T15:42:08.339Z,1.73
2023-06-16T15:44:36.950Z,1.80
2023-06-16T15:47:04.165Z,1.63
2023-06-16T15:49:31.298Z,1.98
2023-06-16T15:51:59.388Z,1.75
2023-06-16T15:54:26.610Z,1.70
2023-06-16T15:56:53.504Z,2.00
2023-06-16T15:59:20.361Z,1.83
2023-06-16T16:01:47.511Z,1.60
2023-06-16T16:04:14.870Z,1.75
2023-06-16T16:06:42.123Z,1.83
2023-06-16T16:09:10.784Z,1.50
2023-06-16T16:11:40.748Z,1.85
2023-06-16T16:14:08.947Z,1.52
2023-06-16T16:16:35.941Z,1.70
2023-06-16T16:19:04.125Z,1.30
2023-06-16T16:21:31.931Z,1.80
2023-06-16T16:23:58.960Z,1.85
2023-06-16T16:26:26.033Z,1.83
2023-06-16T16:28:52.888Z,1.80
2023-06-16T16:31:19.936Z,2.17
2023-06-16T16:33:46.836Z,1.92
2023-06-16T16:36:15.554Z,1.63
2023-06-16T16:38:43.027Z,1.65
2023-06-16T16:41:09.886Z,1.70
2023-06-16T16:43:36.915Z,1.70
2023-06-16T16:46:03.717Z,1.48
2023-06-16T16:48:30.532Z,2.83
2023-06-16T16:50:57.427Z,2.08
2023-06-16T16:53:24.220Z,2.50
2023-06-16T16:55:51.113Z,1.30
2023-06-16T16:58:17.976Z,1.60
2023-06-16T17:00:44.727Z,1.85
2023-06-16T17:03:18.889Z,1.65
2023-06-16T17:05:45.735Z,2.50
2023-06-16T17:08:12.490Z,2.35
2023-06-16T17:10:39.224Z,2.63
2023-06-16T17:13:09.833Z,2.20
2023-06-16T17:15:37.263Z,2.70
2023-06-16T17:18:05.187Z,1.63
2023-06-16T17:20:32.150Z,1.58
2023-06-16T17:22:59.234Z,1.30
2023-06-16T17:25:27.302Z,1.60
2023-06-16T17:27:59.572Z,1.42
2023-06-16T17:30:28.217Z,1.67
2023-06-16T17:32:59.336Z,1.65
2023-06-16T17:35:31.526Z,1.85
2023-06-16T17:37:59.559Z,1.63
2023-06-16T17:40:31.962Z,1.80
2023-06-16T17:42:58.981Z,1.52
2023-06-16T17:45:25.892Z,1.45
2023-06-16T17:47:56.124Z,1.60
2023-06-16T17:50:25.732Z,1.38
2023-06-16T17:52:54.723Z,1.70
2023-06-16T17:55:23.065Z,1.42
2023-06-16T17:57:49.980Z,1.50
2023-06-16T18:00:17.509Z,1.80
2023-06-16T18:02:44.520Z,2.55
2023-06-16T18:05:12.182Z,1.83
2023-06-16T18:07:39.283Z,1.52
2023-06-16T18:10:07.398Z,1.58
2023-06-16T18:12:34.134Z,1.27
2023-06-16T18:15:01.092Z,1.88
2023-06-16T18:17:27.909Z,1.48
2023-06-16T18:19:54.973Z,1.70
2023-06-16T18:22:21.855Z,1.50
2023-06-16T18:24:48.613Z,1.42
2023-06-16T18:27:15.550Z,1.50
2023-06-16T18:29:44.826Z,1.40
2023-06-16T18:32:14.816Z,1.58
2023-06-16T18:34:42.970Z,1.45
2023-06-16T18:37:10.891Z,1.40
2023-06-16T18:39:37.693Z,1.17
2023-06-16T18:42:04.916Z,1.75
2023-06-16T18:44:31.944Z,1.02
2023-06-16T18:47:00.245Z,1.40
2023-06-16T18:49:27.122Z,1.30
2023-06-16T18:51:55.763Z,1.52
2023-06-16T18:54:25.743Z,1.30
2023-06-16T18:56:52.577Z,1.75
2023-06-16T18:59:19.448Z,1.38
2023-06-16T19:01:46.744Z,1.17
2023-06-16T19:04:13.724Z,1.45
2023-06-16T19:06:40.648Z,1.30
2023-06-16T19:09:07.505Z,1.30
2023-06-16T19:11:34.282Z,1.10
2023-06-16T19:14:01.320Z,1.50
2023-06-16T19:16:28.142Z,1.10
2023-06-16T19:18:54.943Z,1.23
2023-06-16T19:21:21.767Z,1.58
2023-06-16T19:23:48.566Z,1.38
2023-06-16T19:26:15.372Z,1.20
2023-06-16T19:28:51.347Z,1.50
2023-06-16T19:31:23.698Z,1.58
2023-06-16T19:33:50.934Z,1.67
2023-06-16T19:36:18.318Z,1.15
2023-06-16T19:38:45.299Z,1.23
2023-06-16T19:41:12.624Z,1.35
2023-06-16T19:43:39.691Z,1.40
2023-06-16T19:46:20.911Z,1.50
2023-06-16T19:48:47.738Z,1.40
2023-06-16T19:51:14.639Z,1.40
2023-06-16T19:53:41.371Z,1.45
2023-06-16T19:56:15.672Z,1.10
2023-06-16T19:58:55.729Z,1.20
2023-06-16T20:01:22.659Z,1.60
2023-06-16T20:03:51.952Z,1.52
2023-06-16T20:06:18.913Z,1.63
2023-06-16T20:08:45.797Z,1.50
2023-06-16T20:11:12.513Z,1.48
2023-06-16T20:13:39.297Z,1.30
2023-06-16T20:16:07.470Z,1.95
2023-06-16T20:18:34.284Z,1.73
2023-06-16T20:21:02.154Z,1.70
2023-06-16T20:23:29.040Z,1.70
2023-06-16T20:25:55.962Z,1.60
2023-06-16T20:28:22.934Z,1.10
2023-06-16T20:30:49.907Z,1.05
2023-06-16T20:33:17.570Z,1.98
2023-06-16T20:35:46.544Z,1.40
2023-06-16T20:38:13.393Z,1.38
2023-06-16T20:40:42.525Z,1.65
2023-06-16T20:43:11.874Z,1.67
2023-06-16T20:45:38.876Z,1.60
2023-06-16T20:48:07.072Z,1.40
2023-06-16T20:50:35.302Z,1.67
2023-06-16T20:53:02.452Z,2.10
2023-06-16T20:55:29.229Z,1.60
2023-06-16T20:57:57.623Z,1.55
2023-06-16T21:00:28.629Z,1.55
2023-06-16T21:02:56.405Z,1.52
2023-06-16T21:05:23.565Z,1.60
2023-06-16T21:07:50.603Z,1.35
2023-06-16T21:10:20.371Z,1.40
2023-06-16T21:12:47.842Z,1.35
2023-06-16T21:15:22.072Z,1.48
2023-06-16T21:17:49.741Z,1.23
2023-06-16T21:20:18.729Z,1.55
2023-06-16T21:22:51.528Z,1.65
2023-06-16T21:25:18.514Z,1.80
2023-06-16T21:27:45.491Z,1.90
2023-06-16T21:30:13.092Z,1.70
2023-06-16T21:32:39.984Z,1.63
2023-06-16T21:35:07.495Z,1.70
2023-06-16T21:37:36.650Z,1.60
2023-06-16T21:40:10.836Z,2.10
2023-06-16T21:42:41.276Z,3.53
2023-06-16T21:45:11.901Z,2.70
2023-06-16T21:47:39.630Z,2.08
2023-06-16T21:50:08.599Z,1.77
2023-06-16T21:52:36.317Z,2.17
2023-06-16T21:55:04.429Z,2.20
2023-06-16T21:57:31.457Z,2.35
2023-06-16T21:59:59.530Z,2.20
2023-06-16T22:02:29.451Z,1.50
2023-06-16T22:04:56.295Z,1.90
2023-06-16T22:07:24.111Z,2.28
2023-06-16T22:09:52.797Z,2.20
2023-06-16T22:12:20.060Z,2.08
2023-06-16T22:14:47.921Z,1.85
2023-06-16T22:17:15.934Z,1.60
2023-06-16T22:19:45.571Z,2.00
2023-06-16T22:22:12.912Z,2.00
2023-06-16T22:24:42.529Z,2.10
2023-06-16T22:29:40.909Z,2.30
2023-06-16T22:32:08.510Z,2.55
2023-06-16T22:34:36.183Z,2.20
2023-06-16T22:37:03.193Z,2.33
2023-06-16T22:39:30.233Z,3.55
2023-06-16T22:41:57.347Z,3.15
2023-06-16T22:44:24.839Z,2.75
2023-06-16T22:46:57.279Z,2.67
2023-06-16T22:49:25.392Z,2.83
2023-06-16T22:51:59.274Z,2.60
2023-06-16T22:54:28.233Z,2.50
2023-06-16T22:56:56.060Z,2.22
2023-06-16T22:59:24.280Z,2.72
2023-06-16T23:01:51.592Z,2.50
2023-06-16T23:04:19.374Z,2.47
2023-06-16T23:06:46.600Z,2.67
2023-06-16T23:09:13.492Z,2.58
2023-06-16T23:11:40.784Z,2.35
2023-06-16T23:14:07.796Z,2.80
2023-06-16T23:16:34.815Z,2.88
2023-06-16T23:19:02.062Z,2.58
2023-06-16T23:21:29.121Z,2.47
2023-06-16T23:23:56.318Z,2.40
2023-06-16T23:26:23.778Z,2.20
2023-06-16T23:28:50.964Z,2.15
2023-06-16T23:31:20.242Z,1.95
2023-06-16T23:33:50.716Z,2.45
2023-06-16T23:36:18.002Z,2.22
2023-06-16T23:38:46.058Z,2.45
2023-06-16T23:41:14.152Z,2.40
2023-06-16T23:43:41.102Z,2.50
2023-06-16T23:46:08.524Z,2.72
2023-06-16T23:48:36.723Z,2.70
2023-06-16T23:51:03.542Z,3.03
2023-06-16T23:53:33.199Z,2.95
2023-06-16T23:56:00.153Z,2.55
2023-06-16T23:58:29.214Z,2.70
